1989 HANITRA:LEON:LEON_HANITRA (1989044S12102)


On this page: IBTrACS data - Map and Plots - Positions - Intensities - Original source data

Summary

Start Feb 13
End Mar 1
Basin SI
LMI 125 kt
Sources jtwc_sh
bom
reunion
td9636
neumann
In WMO? Yes
Previous storm 1989 MISSING (SP)
Previous in basin 1989 KIRRILY (SI)
Concurrent storms 1989 HARRY (SP)
1989 MISSING (SP)
1989 HANITRA (SI)
1989 GIZELA (SI)
1989 HINANO (SP)
1989 JUDY (SP)
1989 IVY (SP)
1989 HSK2189 (SI)
1989 IANA (SI)
1989 MARCIA (SI)
Next in basin 1989 GIZELA (SI)
Next storm 1989 GIZELA (SI)

top of page IBTrACS Data: File Access

top of page HURSAT Data: File Access

Image of storm

top of page Plots:

Map of storm track will not appear if FTP is down
Time series of cyclone Maximum Sustained Wind will not appear if FTP is down
Time series of cyclone Minimum Central Pressure will not appear if FTP is down

top of page Track Data:Position

jtwc_sh bom reunion td9636 neumann
Date Lat Lon Lat Lon Lat Lon Lat Lon Lat Lon
1989-02-13 06:00:00 -12.0 102.0 -12.0 102.0
1989-02-13 12:00:00 -12.2 101.1 -12.2 101.1
1989-02-13 18:00:00 -12.4 100.2 -12.4 100.2
1989-02-14 00:00:00 -12.6 100.5 -12.4 99.5 -12.6 100.5 -12.6 100.5
1989-02-14 06:00:00 -12.5 100.2 -12.0 99.7 -12.4 100.2 -12.5 100.2
1989-02-14 12:00:00 -12.3 100.0 -12.0 100.2 -12.3 100.0 -12.3 100.0
1989-02-14 18:00:00 -12.5 99.8 -12.2 100.8 -12.4 100.0 -12.5 99.8
1989-02-15 00:00:00 -12.5 100.1 -12.6 101.0 -12.5 100.1 -12.5 100.1
1989-02-15 06:00:00 -12.6 100.3 -12.7 100.8 -12.6 100.3 -12.6 100.3
1989-02-15 12:00:00 -12.7 100.6 -12.8 100.6 -12.7 100.6 -12.7 100.6
1989-02-15 18:00:00 -12.8 101.0 -12.8 100.3 -12.8 101.0 -12.8 101.0
1989-02-16 00:00:00 -13.0 101.3 -12.8 100.1 -13.0 101.3 -13.0 101.3
1989-02-16 06:00:00 -13.4 101.2 -12.9 99.6 -13.3 101.2 -13.4 101.2
1989-02-16 12:00:00 -13.6 100.8 -13.0 99.1 -13.6 100.8 -13.6 100.8
1989-02-16 18:00:00 -13.6 100.3 -13.0 98.5 -13.7 100.3 -13.6 100.3
1989-02-17 00:00:00 -13.8 99.6 -13.0 98.0 -13.8 99.6 -13.8 99.6
1989-02-17 06:00:00 -14.0 98.9 -13.0 97.5 -14.1 98.8 -14.0 98.9
1989-02-17 12:00:00 -14.2 97.9 -13.0 97.1 -14.2 97.9 -14.2 97.9
1989-02-17 18:00:00 -13.9 96.9 -13.0 96.4 -13.9 96.9 -13.9 96.9
1989-02-18 00:00:00 -13.5 95.8 -13.0 95.6 -13.5 95.8 -13.5 95.8
1989-02-18 06:00:00 -13.1 94.7 -13.0 95.0 -13.3 94.7 -13.1 94.7
1989-02-18 12:00:00 -13.1 93.6 -12.9 93.8 -13.1 93.6 -13.1 93.6
1989-02-18 18:00:00 -13.1 92.4 -12.8 92.7 -13.1 92.5 -13.1 92.4
1989-02-19 00:00:00 -13.0 91.3 -12.7 91.5 -13.0 91.3 -13.0 91.3
1989-02-19 06:00:00 -12.9 90.2 -12.7 90.4 -12.8 90.1 -12.9 90.2
jtwc_sh bom reunion td9636 neumann
1989-02-19 12:00:00 -12.6 89.0 -12.8 89.0 -12.6 89.0 -12.6 89.0
1989-02-19 18:00:00 -12.6 87.9 -12.6 87.9 -12.6 87.9
1989-02-20 00:00:00 -12.7 86.8 -12.7 86.8 -12.7 86.8
1989-02-20 06:00:00 -12.7 85.9 -13.0 87.1 -12.7 86.0 -12.7 85.9
1989-02-20 12:00:00 -12.7 85.3 -13.0 86.2 -12.7 85.3 -12.7 85.3
1989-02-20 18:00:00 -12.7 84.7 -13.0 85.2 -12.7 84.6 -12.7 84.7
1989-02-21 00:00:00 -12.8 84.1 -13.0 84.3 -12.8 84.1 -12.8 84.1
1989-02-21 06:00:00 -12.8 83.6 -13.1 83.6 -12.8 83.6 -12.8 83.6
1989-02-21 12:00:00 -12.9 83.3 -13.1 83.1 -12.9 83.3 -12.9 83.3
1989-02-21 18:00:00 -13.0 83.1 -13.1 82.8 -13.0 83.0 -13.0 83.1
1989-02-22 00:00:00 -13.2 82.8 -13.2 82.3 -13.2 82.8 -13.2 82.8
1989-02-22 06:00:00 -13.5 82.6 -13.5 82.1 -13.5 82.6 -13.5 82.6
1989-02-22 12:00:00 -13.8 82.4 -14.0 81.8 -13.8 82.4 -13.8 82.4
1989-02-22 18:00:00 -14.2 82.1 -14.3 81.3 -14.2 82.2 -14.2 82.1
1989-02-23 00:00:00 -14.6 81.8 -14.8 81.2 -14.6 81.8 -14.6 81.8
1989-02-23 06:00:00 -14.9 81.3 -15.2 81.0 -14.9 81.3 -14.9 81.3
1989-02-23 12:00:00 -15.3 80.7 -16.0 81.0 -15.3 80.7 -15.3 80.7
1989-02-23 18:00:00 -15.8 80.1 -16.6 80.6 -15.8 80.1 -15.8 80.1
1989-02-24 00:00:00 -16.2 79.5 -17.0 80.0 -16.2 79.5 -16.2 79.5
1989-02-24 06:00:00 -16.5 78.8 -17.0 79.2 -16.5 78.8 -16.5 78.8
1989-02-24 12:00:00 -16.9 78.1 -17.1 78.1 -16.9 78.1 -16.9 78.1
1989-02-24 18:00:00 -17.4 77.4 -17.5 77.1 -17.4 77.5 -17.4 77.4
1989-02-25 00:00:00 -17.9 76.8 -18.0 76.5 -17.9 76.8 -17.9 76.8
1989-02-25 06:00:00 -18.5 76.1 -18.5 76.0 -18.5 76.1 -18.5 76.1
jtwc_sh bom reunion td9636 neumann
1989-02-25 12:00:00 -19.1 75.4 -19.3 75.3 -19.1 75.4 -19.1 75.4
1989-02-25 18:00:00 -19.7 74.7 -20.0 75.0 -19.7 74.7 -19.7 74.7
1989-02-26 00:00:00 -20.4 74.0 -20.7 74.2 -20.4 74.0 -20.4 74.0
1989-02-26 06:00:00 -21.2 73.4 -21.1 73.9 -21.2 73.3 -21.2 73.4
1989-02-26 12:00:00 -22.2 72.7 -22.4 73.0 -22.2 72.7 -22.2 72.7
1989-02-26 18:00:00 -23.5 72.2 -23.8 72.2 -23.5 72.1 -23.5 72.2
1989-02-27 00:00:00 -24.9 71.7 -25.0 71.5 -24.9 71.7 -24.9 71.7
1989-02-27 06:00:00 -26.4 71.4 -26.6 71.0 -26.4 71.4 -26.4 71.4
1989-02-27 12:00:00 -28.0 71.3 -27.7 71.0 -28.0 71.3 -28.0 71.3
1989-02-27 18:00:00 -29.5 71.5 -29.0 71.1 -29.5 71.5 -29.5 71.5
1989-02-28 00:00:00 -30.7 71.8 -30.1 71.7 -30.7 71.8 -30.7 71.8
1989-02-28 06:00:00 -31.7 72.1 -31.6 72.3 -31.6 72.1 -31.7 72.1
1989-02-28 12:00:00 -32.2 72.6 -32.0 73.0 -32.2 72.6 -32.2 72.6
1989-02-28 18:00:00 -32.6 73.2 -32.7 73.3 -32.6 73.2 -32.6 73.2
1989-03-01 00:00:00 -33.1 73.8 -33.1 74.1 -33.1 73.8 -33.1 73.8
1989-03-01 06:00:00 -33.8 74.4 -34.0 75.0 -33.8 74.4 -33.8 74.4

top of pageTrack Data:Intensity

jtwc_sh bom reunion td9636 neumann
Date Wind Pres Wind Pres Wind Pres Wind Pres Wind Pres
1989-02-13 06:00:00 1008. 15. 1008.
1989-02-13 12:00:00 1006. 15. 1006.
1989-02-13 18:00:00 1006. 15. 1006.
1989-02-14 00:00:00 20. 1006. 20. 20.
1989-02-14 06:00:00 20. 1006. 20. 20.
1989-02-14 12:00:00 20. 1006. 20. 20.
1989-02-14 18:00:00 20. 1006. 20. 20.
1989-02-15 00:00:00 20. 1006. 20. 20.
1989-02-15 06:00:00 20. 1006. 20. 20.
1989-02-15 12:00:00 20. 1006. 20. 20.
1989-02-15 18:00:00 25. 1006. 20. 25.
1989-02-16 00:00:00 25. 1006. 25. 25.
1989-02-16 06:00:00 25. 1004. 25. 25.
1989-02-16 12:00:00 25. 1004. 25. 25.
1989-02-16 18:00:00 25. 1004. 25. 25.
1989-02-17 00:00:00 30. 1004. 30. 30.
1989-02-17 06:00:00 30. 21. 1002. 30. 30.
1989-02-17 12:00:00 35. 25. 1000. 35. 35.
1989-02-17 18:00:00 35. 27. 999. 35. 35.
1989-02-18 00:00:00 45. 31. 997. 45. 45.
1989-02-18 06:00:00 55. 35. 995. 45. 55.
1989-02-18 12:00:00 55. 37. 993. 55. 55.
1989-02-18 18:00:00 50. 27. 992. 55. 50.
1989-02-19 00:00:00 50. 41. 990. 50. 50.
1989-02-19 06:00:00 45. 43. 989. 50. 45.
jtwc_sh bom reunion td9636 neumann
1989-02-19 12:00:00 55. 43. 988. 55. 55.
1989-02-19 18:00:00 65. 65. 65.
1989-02-20 00:00:00 75. 75. 75.
1989-02-20 06:00:00 90. 44. 984. 75. 90.
1989-02-20 12:00:00 105. 44. 984. 105. 105.
1989-02-20 18:00:00 115. 52. 976. 105. 115.
1989-02-21 00:00:00 110. 62. 966. 110. 110.
1989-02-21 06:00:00 105. 62. 966. 110. 105.
1989-02-21 12:00:00 115. 62. 966. 115. 115.
1989-02-21 18:00:00 115. 62. 966. 115. 115.
1989-02-22 00:00:00 115. 62. 966. 115. 115.
1989-02-22 06:00:00 120. 62. 966. 115. 120.
1989-02-22 12:00:00 125. 62. 966. 125. 125.
1989-02-22 18:00:00 125. 62. 966. 125. 125.
1989-02-23 00:00:00 125. 72. 954. 125. 125.
1989-02-23 06:00:00 125. 82. 941. 125. 125.
1989-02-23 12:00:00 125. 72. 954. 125. 125.
1989-02-23 18:00:00 120. 72. 954. 125. 120.
1989-02-24 00:00:00 120. 72. 954. 120. 120.
1989-02-24 06:00:00 115. 72. 954. 120. 115.
1989-02-24 12:00:00 110. 62. 966. 110. 110.
1989-02-24 18:00:00 105. 62. 966. 110. 105.
1989-02-25 00:00:00 105. 62. 966. 105. 105.
1989-02-25 06:00:00 100. 72. 954. 105. 100.
jtwc_sh bom reunion td9636 neumann
1989-02-25 12:00:00 90. 72. 954. 90. 90.
1989-02-25 18:00:00 85. 72. 954. 90. 85.
1989-02-26 00:00:00 80. 72. 954. 80. 80.
1989-02-26 06:00:00 75. 62. 966. 80. 75.
1989-02-26 12:00:00 75. 62. 966. 75. 75.
1989-02-26 18:00:00 70. 52. 976. 75. 70.
1989-02-27 00:00:00 65. 52. 976. 65. 65.
1989-02-27 06:00:00 65. 44. 984. 65. 65.
1989-02-27 12:00:00 55. 44. 984. 55. 55.
1989-02-27 18:00:00 50. 36. 991. 55. 50.
1989-02-28 00:00:00 45. 36. 991. 45. 45.
1989-02-28 06:00:00 35. 36. 991. 45. 35.
1989-02-28 12:00:00 30. 28. 997. 30. 30.
1989-02-28 18:00:00 25. 24. 1000. 30. 25.
1989-03-01 00:00:00 25. 20. 25. 25.
1989-03-01 06:00:00 25. 36. 25. 25.

top of page Links to source data

Source Source file Format
jtwc_sh bsh111989.txt ATCF
bom Newcyclonedatabase-08repair.csv:Line=15177:LEON CSV file (from Excel file)
reunion WMO-Best-Tracks.txt:Line=14511:hanitra WMO (old format)
td9636 cons_worldwide_trop_cyclone_18710101-19891231-006:Line=13266 TD 9636
neumann tracks.sh:Storm=850:LEON/HANITRA:BSH111989:JTWC&BM769 HURDAT